Terminal Aerodrome Forecast
Issued by NWS

Home | Current Version | Previous Version | Text Only | Print | Product List | Glossary On
Versions: 1 2 3 4 5 6 7 8 9 10 11 12 13 14 15 16
000
FTUS45 KTFX 262349
TAFHVR
TAF
KHVR 262349Z 2700/2724 VRB05KT P6SM SCT200
     FM270200 08007KT P6SM SCT100 BKN180
     FM270600 07007KT P6SM SCT050 OVC080
     FM271600 29010G18KT P6SM SCT090 BKN180=

USA.gov is the U.S. government's official web portal to all federal, state and local government web resources and services.